sensor_id;sensor_type;location;lat;lon;timestamp;pressure;altitude;pressure_sealevel;temperature;humidity
72636;BME280;60679;48.888;15.544;2022-11-15T00:00:08;96326.28;;;5.39;76.12
72636;BME280;60679;48.888;15.544;2022-11-15T00:02:34;96321.72;;;5.39;76.25
72636;BME280;60679;48.888;15.544;2022-11-15T00:05:00;96324.41;;;5.39;76.11
72636;BME280;60679;48.888;15.544;2022-11-15T00:07:25;96333.66;;;5.37;76.17
72636;BME280;60679;48.888;15.544;2022-11-15T00:09:51;96330.34;;;5.35;76.27
72636;BME280;60679;48.888;15.544;2022-11-15T00:12:16;96334.03;;;5.34;76.23
72636;BME280;60679;48.888;15.544;2022-11-15T00:14:42;96331.34;;;5.34;76.28
72636;BME280;60679;48.888;15.544;2022-11-15T00:17:08;96330.09;;;5.30;76.50
72636;BME280;60679;48.888;15.544;2022-11-15T00:19:33;96326.78;;;5.28;76.39
72636;BME280;60679;48.888;15.544;2022-11-15T00:21:58;96315.78;;;5.22;76.61
72636;BME280;60679;48.888;15.544;2022-11-15T00:24:24;96319.50;;;5.21;76.50
72636;BME280;60679;48.888;15.544;2022-11-15T00:26:49;96322.19;;;5.21;76.48
72636;BME280;60679;48.888;15.544;2022-11-15T00:29:15;96306.28;;;5.20;76.35
72636;BME280;60679;48.888;15.544;2022-11-15T00:31:40;96311.66;;;5.20;76.57
72636;BME280;60679;48.888;15.544;2022-11-15T00:34:06;96310.38;;;5.16;76.70
72636;BME280;60679;48.888;15.544;2022-11-15T00:36:35;96312.59;;;5.12;76.50
72636;BME280;60679;48.888;15.544;2022-11-15T00:39:00;96311.13;;;5.10;77.07
72636;BME280;60679;48.888;15.544;2022-11-15T00:41:26;96327.66;;;5.13;76.70
72636;BME280;60679;48.888;15.544;2022-11-15T00:43:51;96316.94;;;5.13;76.58
72636;BME280;60679;48.888;15.544;2022-11-15T00:46:17;96306.78;;;5.09;76.75
72636;BME280;60679;48.888;15.544;2022-11-15T00:48:42;96319.34;;;5.08;76.77
72636;BME280;60679;48.888;15.544;2022-11-15T00:51:08;96311.50;;;5.07;77.01
72636;BME280;60679;48.888;15.544;2022-11-15T00:53:33;96297.28;;;5.06;76.79
72636;BME280;60679;48.888;15.544;2022-11-15T00:55:59;96298.50;;;5.04;76.73
72636;BME280;60679;48.888;15.544;2022-11-15T00:58:24;96301.75;;;4.99;76.95
72636;BME280;60679;48.888;15.544;2022-11-15T01:00:50;96303.41;;;5.00;77.04
72636;BME280;60679;48.888;15.544;2022-11-15T01:03:15;96300.09;;;4.98;77.08
72636;BME280;60679;48.888;15.544;2022-11-15T01:05:41;96293.16;;;5.04;77.29
72636;BME280;60679;48.888;15.544;2022-11-15T01:08:12;96294.81;;;5.05;77.17
72636;BME280;60679;48.888;15.544;2022-11-15T01:10:38;96304.88;;;5.03;77.14
72636;BME280;60679;48.888;15.544;2022-11-15T01:13:03;96300.47;;;4.95;77.32
72636;BME280;60679;48.888;15.544;2022-11-15T01:15:28;96301.28;;;4.96;77.32
72636;BME280;60679;48.888;15.544;2022-11-15T01:17:54;96284.88;;;4.99;77.32
72636;BME280;60679;48.888;15.544;2022-11-15T01:20:20;96298.28;;;5.05;77.30
72636;BME280;60679;48.888;15.544;2022-11-15T01:22:45;96286.78;;;5.05;77.34
72636;BME280;60679;48.888;15.544;2022-11-15T01:25:11;96285.97;;;5.04;77.06
72636;BME280;60679;48.888;15.544;2022-11-15T01:27:36;96290.69;;;5.02;77.23
72636;BME280;60679;48.888;15.544;2022-11-15T01:30:02;96288.75;;;4.96;77.01
72636;BME280;60679;48.888;15.544;2022-11-15T01:32:29;96294.59;;;4.85;77.29
72636;BME280;60679;48.888;15.544;2022-11-15T01:34:54;96285.91;;;4.83;77.53
72636;BME280;60679;48.888;15.544;2022-11-15T01:37:19;96284.16;;;4.90;77.40
72636;BME280;60679;48.888;15.544;2022-11-15T01:39:45;96279.06;;;4.95;77.40
72636;BME280;60679;48.888;15.544;2022-11-15T01:42:14;96268.56;;;4.94;77.50
72636;BME280;60679;48.888;15.544;2022-11-15T01:44:47;96266.88;;;4.93;77.63
72636;BME280;60679;48.888;15.544;2022-11-15T01:47:17;96272.88;;;4.95;77.54
72636;BME280;60679;48.888;15.544;2022-11-15T01:49:59;96269.38;;;4.94;77.62
72636;BME280;60679;48.888;15.544;2022-11-15T01:52:28;96270.19;;;4.95;77.51
72636;BME280;60679;48.888;15.544;2022-11-15T01:55:18;96279.06;;;4.95;77.61
72636;BME280;60679;48.888;15.544;2022-11-15T01:57:47;96280.91;;;4.95;77.56
72636;BME280;60679;48.888;15.544;2022-11-15T02:00:14;96265.88;;;4.94;77.54
72636;BME280;60679;48.888;15.544;2022-11-15T02:02:40;96267.91;;;4.92;77.63
72636;BME280;60679;48.888;15.544;2022-11-15T02:05:06;96263.59;;;4.91;77.68
72636;BME280;60679;48.888;15.544;2022-11-15T02:07:34;96261.72;;;4.91;77.78
72636;BME280;60679;48.888;15.544;2022-11-15T02:10:06;96254.53;;;4.92;77.51
72636;BME280;60679;48.888;15.544;2022-11-15T02:12:33;96255.34;;;4.92;77.80
72636;BME280;60679;48.888;15.544;2022-11-15T02:14:59;96255.34;;;4.92;77.74
72636;BME280;60679;48.888;15.544;2022-11-15T02:26:38;96230.56;;;4.84;77.76
72636;BME280;60679;48.888;15.544;2022-11-15T02:32:04;96229.34;;;4.86;78.08
72636;BME280;60679;48.888;15.544;2022-11-15T02:42:49;96223.84;;;4.88;77.99
72636;BME280;60679;48.888;15.544;2022-11-15T02:45:39;96220.31;;;4.87;78.12
72636;BME280;60679;48.888;15.544;2022-11-15T02:48:07;96214.75;;;4.89;77.88
72636;BME280;60679;48.888;15.544;2022-11-15T02:50:34;96215.97;;;4.86;78.08
72636;BME280;60679;48.888;15.544;2022-11-15T02:53:00;96209.16;;;4.84;78.10
72636;BME280;60679;48.888;15.544;2022-11-15T02:55:31;96217.31;;;4.76;78.33
72636;BME280;60679;48.888;15.544;2022-11-15T03:03:36;96219.28;;;4.67;78.36
72636;BME280;60679;48.888;15.544;2022-11-15T03:06:19;96211.50;;;4.72;78.34
72636;BME280;60679;48.888;15.544;2022-11-15T03:11:23;96213.16;;;4.73;78.39
72636;BME280;60679;48.888;15.544;2022-11-15T03:16:27;96208.06;;;4.78;78.34
72636;BME280;60679;48.888;15.544;2022-11-15T03:19:05;96210.16;;;4.83;78.51
72636;BME280;60679;48.888;15.544;2022-11-15T03:21:33;96208.72;;;4.80;78.26
72636;BME280;60679;48.888;15.544;2022-11-15T03:24:03;96201.53;;;4.81;78.49
72636;BME280;60679;48.888;15.544;2022-11-15T03:26:30;96201.91;;;4.78;78.37
72636;BME280;60679;48.888;15.544;2022-11-15T03:29:06;96208.91;;;4.79;78.57
72636;BME280;60679;48.888;15.544;2022-11-15T03:31:36;96200.06;;;4.78;78.41
72636;BME280;60679;48.888;15.544;2022-11-15T03:34:39;96206.22;;;4.79;78.64
72636;BME280;60679;48.888;15.544;2022-11-15T03:37:07;96195.72;;;4.77;78.66
72636;BME280;60679;48.888;15.544;2022-11-15T03:39:33;96195.06;;;4.75;78.36
72636;BME280;60679;48.888;15.544;2022-11-15T03:42:14;96186.59;;;4.72;78.57
72636;BME280;60679;48.888;15.544;2022-11-15T03:47:43;96193.38;;;4.68;78.78
72636;BME280;60679;48.888;15.544;2022-11-15T03:50:15;96204.06;;;4.68;78.82
72636;BME280;60679;48.888;15.544;2022-11-15T03:52:42;96198.06;;;4.65;78.77
72636;BME280;60679;48.888;15.544;2022-11-15T03:55:13;96195.19;;;4.67;78.92
72636;BME280;60679;48.888;15.544;2022-11-15T03:57:39;96190.69;;;4.68;78.88
72636;BME280;60679;48.888;15.544;2022-11-15T04:00:05;96185.34;;;4.68;78.78
72636;BME280;60679;48.888;15.544;2022-11-15T04:02:31;96200.19;;;4.70;78.84
72636;BME280;60679;48.888;15.544;2022-11-15T04:04:56;96199.34;;;4.70;78.78
72636;BME280;60679;48.888;15.544;2022-11-15T04:07:22;96199.53;;;4.68;78.76
72636;BME280;60679;48.888;15.544;2022-11-15T04:09:47;96187.38;;;4.65;78.71
72636;BME280;60679;48.888;15.544;2022-11-15T04:12:29;96191.91;;;4.65;79.10
72636;BME280;60679;48.888;15.544;2022-11-15T04:14:59;96183.88;;;4.65;78.97
72636;BME280;60679;48.888;15.544;2022-11-15T04:17:47;96189.59;;;4.62;78.88
72636;BME280;60679;48.888;15.544;2022-11-15T04:23:04;96171.81;;;4.54;78.91
72636;BME280;60679;48.888;15.544;2022-11-15T04:25:51;96177.94;;;4.48;78.84
72636;BME280;60679;48.888;15.544;2022-11-15T04:28:17;96175.63;;;4.45;78.97
72636;BME280;60679;48.888;15.544;2022-11-15T04:30:43;96171.50;;;4.43;79.01
72636;BME280;60679;48.888;15.544;2022-11-15T04:33:09;96180.13;;;4.45;79.02
72636;BME280;60679;48.888;15.544;2022-11-15T04:35:34;96168.16;;;4.41;78.98
72636;BME280;60679;48.888;15.544;2022-11-15T04:38:00;96171.03;;;4.39;79.01
72636;BME280;60679;48.888;15.544;2022-11-15T04:40:26;96167.91;;;4.36;79.25
72636;BME280;60679;48.888;15.544;2022-11-15T04:42:52;96163.97;;;4.32;79.26
72636;BME280;60679;48.888;15.544;2022-11-15T04:45:17;96159.63;;;4.31;79.08
72636;BME280;60679;48.888;15.544;2022-11-15T04:47:44;96151.97;;;4.28;79.24
72636;BME280;60679;48.888;15.544;2022-11-15T04:50:10;96152.97;;;4.27;79.11
72636;BME280;60679;48.888;15.544;2022-11-15T04:52:40;96152.56;;;4.23;78.97
72636;BME280;60679;48.888;15.544;2022-11-15T04:55:05;96160.94;;;4.20;79.20
72636;BME280;60679;48.888;15.544;2022-11-15T04:57:31;96156.97;;;4.16;79.17
72636;BME280;60679;48.888;15.544;2022-11-15T04:59:57;96166.19;;;4.14;79.42
72636;BME280;60679;48.888;15.544;2022-11-15T05:02:22;96169.03;;;4.12;79.49
72636;BME280;60679;48.888;15.544;2022-11-15T05:04:47;96162.06;;;4.11;79.47
72636;BME280;60679;48.888;15.544;2022-11-15T05:07:13;96164.09;;;4.09;79.46
72636;BME280;60679;48.888;15.544;2022-11-15T05:09:38;96168.97;;;4.05;79.32
72636;BME280;60679;48.888;15.544;2022-11-15T05:12:04;96169.81;;;4.06;79.54
72636;BME280;60679;48.888;15.544;2022-11-15T05:14:29;96155.59;;;4.05;79.70
72636;BME280;60679;48.888;15.544;2022-11-15T05:16:55;96156.25;;;4.07;79.50
72636;BME280;60679;48.888;15.544;2022-11-15T05:19:20;96158.28;;;4.05;79.47
72636;BME280;60679;48.888;15.544;2022-11-15T05:21:47;96160.31;;;4.03;79.68
72636;BME280;60679;48.888;15.544;2022-11-15T05:24:12;96153.69;;;3.99;79.48
72636;BME280;60679;48.888;15.544;2022-11-15T05:26:38;96154.06;;;3.96;79.57
72636;BME280;60679;48.888;15.544;2022-11-15T05:29:03;96148.50;;;3.98;79.54
72636;BME280;60679;48.888;15.544;2022-11-15T05:31:29;96148.50;;;3.98;79.62
72636;BME280;60679;48.888;15.544;2022-11-15T05:33:55;96138.03;;;3.96;79.59
72636;BME280;60679;48.888;15.544;2022-11-15T05:36:29;96135.72;;;3.93;79.67
72636;BME280;60679;48.888;15.544;2022-11-15T05:38:56;96134.06;;;3.92;79.66
72636;BME280;60679;48.888;15.544;2022-11-15T05:41:27;96132.41;;;3.91;79.66
72636;BME280;60679;48.888;15.544;2022-11-15T05:43:54;96133.63;;;3.89;79.65
72636;BME280;60679;48.888;15.544;2022-11-15T05:46:20;96139.13;;;3.87;79.68
72636;BME280;60679;48.888;15.544;2022-11-15T05:48:48;96138.50;;;3.85;79.57
72636;BME280;60679;48.888;15.544;2022-11-15T05:51:17;96131.41;;;3.78;79.84
72636;BME280;60679;48.888;15.544;2022-11-15T05:53:44;96133.34;;;3.69;79.50
72636;BME280;60679;48.888;15.544;2022-11-15T05:56:10;96133.34;;;3.69;79.75
72636;BME280;60679;48.888;15.544;2022-11-15T05:58:36;96142.00;;;3.71;80.05
72636;BME280;60679;48.888;15.544;2022-11-15T06:01:02;96131.53;;;3.70;79.56
72636;BME280;60679;48.888;15.544;2022-11-15T06:03:28;96137.66;;;3.70;79.75
72636;BME280;60679;48.888;15.544;2022-11-15T06:05:53;96138.22;;;3.66;79.79
72636;BME280;60679;48.888;15.544;2022-11-15T06:08:19;96135.56;;;3.66;79.76
72636;BME280;60679;48.888;15.544;2022-11-15T06:10:44;96134.34;;;3.68;80.07
72636;BME280;60679;48.888;15.544;2022-11-15T06:13:10;96138.88;;;3.68;80.11
72636;BME280;60679;48.888;15.544;2022-11-15T06:15:35;96134.34;;;3.68;79.94
72636;BME280;60679;48.888;15.544;2022-11-15T06:18:01;96132.31;;;3.70;80.08
72636;BME280;60679;48.888;15.544;2022-11-15T06:20:28;96133.34;;;3.69;79.92
72636;BME280;60679;48.888;15.544;2022-11-15T06:22:58;96132.31;;;3.70;79.91
72636;BME280;60679;48.888;15.544;2022-11-15T06:25:24;96134.56;;;3.67;80.11
72636;BME280;60679;48.888;15.544;2022-11-15T06:27:54;96141.38;;;3.69;79.93
72636;BME280;60679;48.888;15.544;2022-11-15T06:30:21;96144.56;;;3.65;80.00
72636;BME280;60679;48.888;15.544;2022-11-15T06:32:46;96143.94;;;3.63;80.09
72636;BME280;60679;48.888;15.544;2022-11-15T06:35:13;96139.06;;;3.66;80.07
72636;BME280;60679;48.888;15.544;2022-11-15T06:37:39;96151.22;;;3.69;80.17
72636;BME280;60679;48.888;15.544;2022-11-15T06:40:05;96152.13;;;3.76;79.94
72636;BME280;60679;48.888;15.544;2022-11-15T06:42:31;96148.06;;;3.80;80.04
72636;BME280;60679;48.888;15.544;2022-11-15T06:44:56;96154.25;;;3.80;79.91
72636;BME280;60679;48.888;15.544;2022-11-15T06:47:22;96144.03;;;3.84;80.04
72636;BME280;60679;48.888;15.544;2022-11-15T06:49:47;96147.34;;;3.86;80.11
72636;BME280;60679;48.888;15.544;2022-11-15T06:52:13;96153.16;;;3.89;79.74
72636;BME280;60679;48.888;15.544;2022-11-15T06:54:38;96148.81;;;3.88;79.68
72636;BME280;60679;48.888;15.544;2022-11-15T06:57:04;96149.81;;;3.87;79.68
72636;BME280;60679;48.888;15.544;2022-11-15T06:59:30;96161.31;;;3.88;79.59
72636;BME280;60679;48.888;15.544;2022-11-15T07:01:55;96157.81;;;3.87;79.91
72636;BME280;60679;48.888;15.544;2022-11-15T07:04:21;96162.63;;;3.92;79.88
72636;BME280;60679;48.888;15.544;2022-11-15T07:06:47;96166.19;;;3.99;79.79
72636;BME280;60679;48.888;15.544;2022-11-15T07:09:13;96160.31;;;4.03;79.68
72636;BME280;60679;48.888;15.544;2022-11-15T07:11:39;96173.09;;;4.08;79.63
72636;BME280;60679;48.888;15.544;2022-11-15T07:14:04;96162.88;;;4.12;79.77
72636;BME280;60679;48.888;15.544;2022-11-15T07:16:30;96163.31;;;4.15;79.78
72636;BME280;60679;48.888;15.544;2022-11-15T07:18:55;96157.81;;;4.17;79.67
72636;BME280;60679;48.888;15.544;2022-11-15T07:21:21;96148.38;;;4.21;80.14
72636;BME280;60679;48.888;15.544;2022-11-15T07:23:50;96146.00;;;4.26;79.62
72636;BME280;60679;48.888;15.544;2022-11-15T07:26:15;96149.31;;;4.28;79.79
72636;BME280;60679;48.888;15.544;2022-11-15T07:28:41;96146.25;;;4.31;79.53
72636;BME280;60679;48.888;15.544;2022-11-15T07:31:08;96147.34;;;4.36;79.63
72636;BME280;60679;48.888;15.544;2022-11-15T07:33:34;96142.19;;;4.35;79.66
72636;BME280;60679;48.888;15.544;2022-11-15T07:36:01;96146.97;;;4.39;79.58
72636;BME280;60679;48.888;15.544;2022-11-15T07:38:28;96151.75;;;4.44;79.74
72636;BME280;60679;48.888;15.544;2022-11-15T07:41:00;96145.47;;;4.51;79.55
72636;BME280;60679;48.888;15.544;2022-11-15T07:43:25;96149.63;;;4.54;79.57
72636;BME280;60679;48.888;15.544;2022-11-15T07:45:53;96152.53;;;4.59;79.64
72636;BME280;60679;48.888;15.544;2022-11-15T07:48:18;96147.06;;;4.67;79.12
72636;BME280;60679;48.888;15.544;2022-11-15T07:50:44;96147.91;;;4.68;79.40
72636;BME280;60679;48.888;15.544;2022-11-15T07:53:09;96150.19;;;4.71;79.40
72636;BME280;60679;48.888;15.544;2022-11-15T07:55:35;96142.19;;;4.71;79.35
72636;BME280;60679;48.888;15.544;2022-11-15T07:58:06;96151.84;;;4.72;79.18
72636;BME280;60679;48.888;15.544;2022-11-15T08:00:32;96140.59;;;4.76;79.14
72636;BME280;60679;48.888;15.544;2022-11-15T08:03:24;96145.56;;;4.79;79.22
72636;BME280;60679;48.888;15.544;2022-11-15T08:05:50;96141.84;;;4.80;79.54
72636;BME280;60679;48.888;15.544;2022-11-15T08:08:16;96144.50;;;4.80;78.99
72636;BME280;60679;48.888;15.544;2022-11-15T08:10:41;96143.72;;;4.80;79.16
72636;BME280;60679;48.888;15.544;2022-11-15T08:13:10;96148.66;;;4.83;79.32
72636;BME280;60679;48.888;15.544;2022-11-15T08:15:36;96142.91;;;4.86;79.19
72636;BME280;60679;48.888;15.544;2022-11-15T08:18:05;96144.00;;;4.91;79.27
72636;BME280;60679;48.888;15.544;2022-11-15T08:20:31;96146.50;;;4.93;79.11
72636;BME280;60679;48.888;15.544;2022-11-15T08:22:58;96142.38;;;4.90;79.37
72636;BME280;60679;48.888;15.544;2022-11-15T08:25:25;96136.44;;;4.95;79.08
72636;BME280;60679;48.888;15.544;2022-11-15T08:28:00;96142.41;;;4.97;79.55
72636;BME280;60679;48.888;15.544;2022-11-15T08:30:27;96137.72;;;4.99;78.89
72636;BME280;60679;48.888;15.544;2022-11-15T08:32:54;96138.72;;;4.98;79.00
72636;BME280;60679;48.888;15.544;2022-11-15T08:35:21;96135.50;;;5.02;79.17
72636;BME280;60679;48.888;15.544;2022-11-15T08:37:46;96143.94;;;5.06;79.21
72636;BME280;60679;48.888;15.544;2022-11-15T08:40:12;96143.09;;;5.05;79.24
72636;BME280;60679;48.888;15.544;2022-11-15T08:42:39;96138.41;;;5.07;79.20
72636;BME280;60679;48.888;15.544;2022-11-15T08:45:06;96141.72;;;5.09;79.05
72636;BME280;60679;48.888;15.544;2022-11-15T08:47:32;96139.47;;;5.13;78.94
72636;BME280;60679;48.888;15.544;2022-11-15T08:49:57;96136.41;;;5.16;78.87
72636;BME280;60679;48.888;15.544;2022-11-15T08:52:23;96130.47;;;5.20;78.76
72636;BME280;60679;48.888;15.544;2022-11-15T08:54:49;96128.38;;;5.16;78.98
72636;BME280;60679;48.888;15.544;2022-11-15T08:57:14;96133.59;;;5.24;79.13
72636;BME280;60679;48.888;15.544;2022-11-15T08:59:40;96120.47;;;5.29;79.00
72636;BME280;60679;48.888;15.544;2022-11-15T09:02:06;96115.72;;;5.31;78.85
72636;BME280;60679;48.888;15.544;2022-11-15T09:04:31;96121.28;;;5.30;78.78
72636;BME280;60679;48.888;15.544;2022-11-15T09:06:57;96120.47;;;5.29;78.92
72636;BME280;60679;48.888;15.544;2022-11-15T09:09:23;96122.97;;;5.37;79.03
72636;BME280;60679;48.888;15.544;2022-11-15T09:11:48;96114.16;;;5.43;78.78
72636;BME280;60679;48.888;15.544;2022-11-15T09:14:14;96126.72;;;5.43;78.72
72636;BME280;60679;48.888;15.544;2022-11-15T09:16:40;96129.22;;;5.44;78.54
72636;BME280;60679;48.888;15.544;2022-11-15T09:19:06;96127.78;;;5.42;78.54
72636;BME280;60679;48.888;15.544;2022-11-15T09:21:32;96119.75;;;5.48;78.84
72636;BME280;60679;48.888;15.544;2022-11-15T09:23:57;96121.88;;;5.53;78.81
72636;BME280;60679;48.888;15.544;2022-11-15T09:26:23;96120.66;;;5.55;78.44
72636;BME280;60679;48.888;15.544;2022-11-15T09:28:49;96120.66;;;5.62;78.32
72636;BME280;60679;48.888;15.544;2022-11-15T09:31:14;96117.22;;;5.68;78.47
72636;BME280;60679;48.888;15.544;2022-11-15T09:33:40;96114.81;;;5.79;78.44
72636;BME280;60679;48.888;15.544;2022-11-15T09:36:09;96115.72;;;5.93;78.14
72636;BME280;60679;48.888;15.544;2022-11-15T09:38:35;96103.22;;;6.00;77.88
72636;BME280;60679;48.888;15.544;2022-11-15T09:41:27;96104.03;;;6.01;78.04
72636;BME280;60679;48.888;15.544;2022-11-15T09:47:10;96111.38;;;5.86;78.11
72636;BME280;60679;48.888;15.544;2022-11-15T09:49:42;96096.34;;;5.91;78.13
72636;BME280;60679;48.888;15.544;2022-11-15T09:52:09;96098.69;;;6.07;78.03
72636;BME280;60679;48.888;15.544;2022-11-15T09:54:43;96089.88;;;6.20;77.96
72636;BME280;60679;48.888;15.544;2022-11-15T10:00:34;96072.78;;;6.21;77.91
72636;BME280;60679;48.888;15.544;2022-11-15T10:03:14;96070.91;;;6.21;77.96
72636;BME280;60679;48.888;15.544;2022-11-15T10:05:45;96076.84;;;6.10;78.22
72636;BME280;60679;48.888;15.544;2022-11-15T10:11:03;96060.97;;;6.09;78.23
72636;BME280;60679;48.888;15.544;2022-11-15T10:13:34;96056.66;;;6.14;78.35
72636;BME280;60679;48.888;15.544;2022-11-15T10:21:20;96046.53;;;6.10;78.54
72636;BME280;60679;48.888;15.544;2022-11-15T10:23:47;96026.13;;;6.15;78.47
72636;BME280;60679;48.888;15.544;2022-11-15T10:26:16;96015.22;;;6.17;78.25
72636;BME280;60679;48.888;15.544;2022-11-15T10:28:41;96020.38;;;6.18;78.31
72636;BME280;60679;48.888;15.544;2022-11-15T10:31:28;96016.88;;;6.24;78.14
72636;BME280;60679;48.888;15.544;2022-11-15T10:34:15;96002.28;;;6.40;77.68
72636;BME280;60679;48.888;15.544;2022-11-15T10:36:57;96001.03;;;6.49;77.62
72636;BME280;60679;48.888;15.544;2022-11-15T10:39:23;95991.38;;;6.55;77.38
72636;BME280;60679;48.888;15.544;2022-11-15T10:41:49;95989.91;;;6.59;77.29
72636;BME280;60679;48.888;15.544;2022-11-15T10:47:05;95985.16;;;6.61;77.55
72636;BME280;60679;48.888;15.544;2022-11-15T10:49:33;95983.94;;;6.76;77.22
72636;BME280;60679;48.888;15.544;2022-11-15T10:52:15;95978.31;;;7.04;76.62
72636;BME280;60679;48.888;15.544;2022-11-15T10:57:29;95971.00;;;7.44;76.11
72636;BME280;60679;48.888;15.544;2022-11-15T11:00:02;95965.41;;;7.45;75.84
72636;BME280;60679;48.888;15.544;2022-11-15T11:02:40;95970.59;;;7.40;76.46
72636;BME280;60679;48.888;15.544;2022-11-15T11:05:40;95968.75;;;7.41;76.55
72636;BME280;60679;48.888;15.544;2022-11-15T11:08:21;95969.16;;;7.44;76.11
72636;BME280;60679;48.888;15.544;2022-11-15T11:10:55;95960.47;;;7.42;75.98
72636;BME280;60679;48.888;15.544;2022-11-15T11:13:27;95962.56;;;7.34;76.29
72636;BME280;60679;48.888;15.544;2022-11-15T11:16:05;95963.44;;;7.21;76.68
72636;BME280;60679;48.888;15.544;2022-11-15T11:18:42;95974.22;;;7.08;76.96
72636;BME280;60679;48.888;15.544;2022-11-15T11:21:13;95974.41;;;7.07;77.25
72636;BME280;60679;48.888;15.544;2022-11-15T11:23:55;95972.53;;;7.01;77.38
72636;BME280;60679;48.888;15.544;2022-11-15T11:29:53;95957.69;;;6.91;77.49
72636;BME280;60679;48.888;15.544;2022-11-15T11:33:01;95953.38;;;6.97;77.65
72636;BME280;60679;48.888;15.544;2022-11-15T11:38:38;95939.13;;;6.83;77.93
72636;BME280;60679;48.888;15.544;2022-11-15T11:41:18;95933.97;;;6.75;78.25
72636;BME280;60679;48.888;15.544;2022-11-15T11:46:48;95933.16;;;6.55;78.48
72636;BME280;60679;48.888;15.544;2022-11-15T11:51:58;95924.50;;;6.47;78.94
72636;BME280;60679;48.888;15.544;2022-11-15T11:57:10;95919.75;;;6.42;78.95
72636;BME280;60679;48.888;15.544;2022-11-15T11:59:51;95918.75;;;6.43;79.29
72636;BME280;60679;48.888;15.544;2022-11-15T12:02:36;95909.66;;;6.44;79.18
72636;BME280;60679;48.888;15.544;2022-11-15T12:05:25;95897.88;;;6.38;79.19
72636;BME280;60679;48.888;15.544;2022-11-15T12:07:54;95893.78;;;6.43;79.22
72636;BME280;60679;48.888;15.544;2022-11-15T12:10:24;95889.84;;;6.38;79.28
72636;BME280;60679;48.888;15.544;2022-11-15T12:13:04;95884.28;;;6.33;79.42
72636;BME280;60679;48.888;15.544;2022-11-15T12:15:51;95881.41;;;6.28;79.73
72636;BME280;60679;48.888;15.544;2022-11-15T12:18:19;95872.72;;;6.33;79.71
72636;BME280;60679;48.888;15.544;2022-11-15T12:23:43;95863.66;;;6.47;79.22
72636;BME280;60679;48.888;15.544;2022-11-15T12:26:16;95852.50;;;6.44;79.58
72636;BME280;60679;48.888;15.544;2022-11-15T12:28:45;95856.84;;;6.45;79.57
72636;BME280;60679;48.888;15.544;2022-11-15T12:31:30;95861.19;;;6.46;79.30
72636;BME280;60679;48.888;15.544;2022-11-15T12:36:46;95848.00;;;6.31;79.54
72636;BME280;60679;48.888;15.544;2022-11-15T12:39:13;95855.44;;;6.29;79.53
72636;BME280;60679;48.888;15.544;2022-11-15T12:41:41;95850.06;;;6.29;79.71
72636;BME280;60679;48.888;15.544;2022-11-15T12:44:12;95837.47;;;6.29;79.63
72636;BME280;60679;48.888;15.544;2022-11-15T12:59:55;95821.09;;;6.77;78.85
72636;BME280;60679;48.888;15.544;2022-11-15T13:05:24;95815.50;;;6.72;79.25
72636;BME280;60679;48.888;15.544;2022-11-15T13:17:53;95802.56;;;6.49;79.55
72636;BME280;60679;48.888;15.544;2022-11-15T13:20:30;95807.56;;;6.46;79.73
72636;BME280;60679;48.888;15.544;2022-11-15T13:23:07;95804.88;;;6.46;79.79
72636;BME280;60679;48.888;15.544;2022-11-15T13:33:34;95807.56;;;6.46;79.79
72636;BME280;60679;48.888;15.544;2022-11-15T13:41:52;95797.25;;;6.29;80.21
72636;BME280;60679;48.888;15.544;2022-11-15T13:44:27;95792.72;;;6.30;80.42
72636;BME280;60679;48.888;15.544;2022-11-15T13:47:13;95785.91;;;6.27;80.18
72636;BME280;60679;48.888;15.544;2022-11-15T13:49:41;95793.13;;;6.27;80.37
72636;BME280;60679;48.888;15.544;2022-11-15T13:52:10;95787.56;;;6.22;80.49
72636;BME280;60679;48.888;15.544;2022-11-15T13:54:46;95789.41;;;6.21;80.58
72636;BME280;60679;48.888;15.544;2022-11-15T13:57:20;95778.69;;;6.21;80.44
72636;BME280;60679;48.888;15.544;2022-11-15T13:59:59;95778.94;;;6.20;80.39
72636;BME280;60679;48.888;15.544;2022-11-15T14:02:34;95775.81;;;6.16;80.53
72636;BME280;60679;48.888;15.544;2022-11-15T14:05:18;95777.06;;;6.14;80.52
72636;BME280;60679;48.888;15.544;2022-11-15T14:08:12;95765.09;;;6.10;80.86
72636;BME280;60679;48.888;15.544;2022-11-15T14:10:39;95774.19;;;6.09;80.69
72636;BME280;60679;48.888;15.544;2022-11-15T14:13:29;95771.72;;;6.07;80.93
72636;BME280;60679;48.888;15.544;2022-11-15T14:16:12;95771.31;;;6.04;81.02
72636;BME280;60679;48.888;15.544;2022-11-15T14:18:53;95769.44;;;6.04;80.73
72636;BME280;60679;48.888;15.544;2022-11-15T14:21:19;95760.59;;;6.04;80.79
72636;BME280;60679;48.888;15.544;2022-11-15T14:23:45;95754.19;;;6.05;80.89
72636;BME280;60679;48.888;15.544;2022-11-15T14:28:52;95748.00;;;6.04;80.58
72636;BME280;60679;48.888;15.544;2022-11-15T14:31:19;95751.09;;;6.01;81.02
72636;BME280;60679;48.888;15.544;2022-11-15T14:33:45;95747.19;;;5.97;81.11
72636;BME280;60679;48.888;15.544;2022-11-15T14:36:19;95744.72;;;5.96;81.17
72636;BME280;60679;48.888;15.544;2022-11-15T14:38:45;95742.47;;;5.93;81.12
72636;BME280;60679;48.888;15.544;2022-11-15T14:41:20;95740.00;;;5.91;81.20
72636;BME280;60679;48.888;15.544;2022-11-15T14:43:46;95740.22;;;5.90;81.44
72636;BME280;60679;48.888;15.544;2022-11-15T14:46:12;95744.75;;;5.89;81.37
72636;BME280;60679;48.888;15.544;2022-11-15T14:48:37;95732.78;;;5.85;81.38
72636;BME280;60679;48.888;15.544;2022-11-15T14:51:03;95739.16;;;5.84;81.56
72636;BME280;60679;48.888;15.544;2022-11-15T14:53:34;95726.78;;;5.83;81.79
72636;BME280;60679;48.888;15.544;2022-11-15T14:56:00;95716.06;;;5.83;81.56
72636;BME280;60679;48.888;15.544;2022-11-15T14:58:25;95718.75;;;5.83;81.57
72636;BME280;60679;48.888;15.544;2022-11-15T15:00:51;95719.78;;;5.82;81.65
72636;BME280;60679;48.888;15.544;2022-11-15T15:03:16;95725.34;;;5.80;81.69
72636;BME280;60679;48.888;15.544;2022-11-15T15:05:43;95718.56;;;5.78;81.43
72636;BME280;60679;48.888;15.544;2022-11-15T15:08:09;95718.13;;;5.74;81.69
72636;BME280;60679;48.888;15.544;2022-11-15T15:10:43;95718.13;;;5.74;81.78